Pagrindinis puslapis
METAR-TAF:

METAR-TAF

Oro uostai :

Paduja, Italija

platuma: 45-23-45N, ilguma: 11-50-53E, Aukštis: 13 m

Dabartinis oras

Ataskaita buvo paskelbta 13 valandos ir 45 minutes, ne 07:00 UTC
Vėjas 3 kt nuo kintamojo kryptimis
Temperatūra 6°C
Drėgmė 65%
Slėgis 1034 hPa
Matomumas 10 km arba daugiau
nėra debesų žemiau 1500 m ir nėra kamuolinių lietaus debesų

METAR: LIPU 020700Z VRB03KT CAVOK 06/00 Q1034

Laikas: 21:45 (20:45 UTC)


TAF: trūkstamas

Orai ataskaitas ir orų prognozės (METAR, TAF).

turimą stotys yra geltonos ir raudonos taškus žemėlapyje.

Perkelti pele per norėdami pamatyti stoties vardą.

Tada spustelėkite, norėdami matyti oro stebėjimo ir prognozės.

Norėdami pakeisti žemėlapį: spustelėkite ant žalios mygtukų su juodo kryžiaus žemyn,; žalią mygtuką su brūkšneliu, jei norite nutolinti; arba žalių rodyklių gretimoms žemėlapius.


METAR-TAF: